AirNav   TITAN Aviation Fuels
 
 1519 users online  

23MI Dvoracek Field Airport
Charlevoix, Michigan, USA


FAA INFORMATION EFFECTIVE 04 NOVEMBER 2021

Location

FAA Identifier: 23MI
Lat/Long: 45-14-40.6050N 085-14-20.2300W
45-14.676750N 085-14.337167W
45.2446125,-85.2389528
(estimated)
Elevation: 740 ft. / 226 m (estimated)
From city: 5 miles SSE of CHARLEVOIX, MI
Time zone: UTC -4 (UTC -5 during Standard Time)
Zip code: 49720

Airport Operations

Airport use: Private use. Permission required prior to landing
Activation date: 12/2020
Control tower: no
ARTCC: MINNEAPOLIS CENTER
FSS: LANSING FLIGHT SERVICE STATION
Attendance: UNATNDD
Segmented circle: no

Airport Communications

WX AWOS-3 at CVX (4 nm NW): 120.0 (231-237-9703)
WX AWOS-3 at ACB (15 nm S): 119.275 (231-533-8941)
WX AWOS-3 at MGN (17 nm NE): 119.925 (231-347-5231)

Nearby radio navigation aids

VOR radial/distance  VOR name  Freq  Var
GLRr308/26.6GAYLORD VOR/DME109.2006W
PLNr232/33.5PELLSTON VORTAC111.8006W
TVCr023/37.0TRAVERSE CITY VOR/DME114.6002W

 
NDB name  Hdg/Dist  Freq  Var  ID
GRAYLING336/34.435906WGYG --. -.-- --.

Airport Services

Oil available: ANNC ON CVX CTAF PER LOA.

Runway Information

Runway 16/34

Dimensions: 1200 x 60 ft. / 366 x 18 m
Surface: turf
RUNWAY 16  RUNWAY 34
Latitude: 45-14.767333N45-14.586167N
Longitude: 085-14.392667W085-14.281667W
Elevation: 740.0 ft.740.0 ft.
Traffic pattern: rightleft
Runway heading: 157 true337 true

Airport Ownership and Management from official FAA records

Ownership: Privately-owned
Owner: DANA & HAYDEN DVORACEK
12759 KLOOSTER RD
CHARLEVOIX, MI 49720-9553
Phone 231-675-1471
Manager: DANA & HAYDEN DVORACEK
12759 KLOOSTER RD
CHARLEVOIX, MI 49720-9553
Phone 231-675-1471

Airport Operational Statistics

Aircraft based on the field: 1
Single engine airplanes: 1
    

Additional Remarks

FOR CD CTC MINNEAPOLIS ARTCC AT 651-463-5588.

Instrument Procedures

There are no published instrument procedures at 23MI.

Some nearby airports with instrument procedures:

KCVX - Charlevoix Municipal Airport (4 nm NW)
N98 - Boyne City Municipal Airport (11 nm E)
KBFA - Boyne Mountain Airport (14 nm E)
KACB - Antrim County Airport (15 nm S)
KMGN - Harbor Springs Airport (17 nm NE)
 
Loc | Ops | Rwys | IFR | FBO | Links
Com | Nav | Svcs | Stats | Notes
Aerial photo
No photo
 
Airport distance calculator
Flying to Dvoracek Field Airport? Find the distance to fly.

From to 23MI

Sunrise and sunset
Times for 29-Nov-2021
 Local
(UTC-5)
 Zulu
(UTC)
Morning civil twilight07:2512:25
Sunrise07:5812:58
Sunset17:0022:00
Evening civil twilight17:3322:33

Current date and time
Zulu (UTC)  29-Nov-2021 15:00:54
Local (UTC-5)  29-Nov-2021 10:00:54
 
METAR
KCVX 
4nm N 
291455Z AUTO 23004KT 10SM BKN036 OVC042 02/M05 A3000 RMK AO2 T00151053
KACB 
16nm S 
291455Z AUTO 20004KT 10SM OVC042 01/M03 A3002 RMK AO2 T00061035
KMGN 
18nm NE 
291455Z AUTO 00000KT 10SM OVC031 00/M03 A3000 RMK AO2 T00011031
TAF
KPLN 
27nm NE 
291122Z 2912/3012 27003KT P6SM VCSH BKN045 FM291500 24003KT P6SM OVC028 FM291900 21005KT P6SM BKN040 FM292100 19004KT P6SM VCSH OVC050 FM292300 18005KT 5SM -SN BR OVC050 FM300100 18005KT 2SM -SN BR OVC019 FM300600 16004KT P6SM VCSH OVC010
NOTAMs
Click for the latest NOTAMs
NOTAMs are issued by the DoD/FAA and will open in a separate window not controlled by AirNav.

 

 
 

Would you like to see your business listed on this page?

 If your business provides an interesting product or service to pilots, flight crews, aircraft, or users of the Dvoracek Field Airport, you should consider listing it here.  To start the listing process, click on the button below
 
Add a business
 

Other Pages about Dvoracek Field Airport

Update a link
 
Copyright © AirNav, LLC. All rights reserved. Privacy Policy  Contact